createdAt,value
2019-03-26T00:01:45.072Z,6.23
2019-03-26T00:04:15.512Z,8.27
2019-03-26T00:06:45.955Z,6.40
2019-03-26T00:09:16.411Z,8.43
2019-03-26T00:11:46.843Z,8.23
2019-03-26T00:14:17.366Z,7.40
2019-03-26T00:16:48.045Z,7.03
2019-03-26T00:19:18.520Z,6.97
2019-03-26T00:21:49.130Z,6.67
2019-03-26T00:24:19.631Z,7.67
2019-03-26T00:26:50.139Z,8.17
2019-03-26T00:29:20.599Z,10.03
2019-03-26T00:31:51.228Z,7.53
2019-03-26T00:34:21.771Z,7.27
2019-03-26T00:36:52.197Z,6.87
2019-03-26T00:39:22.569Z,9.67
2019-03-26T00:41:53.019Z,8.10
2019-03-26T00:44:23.440Z,7.03
2019-03-26T00:46:53.950Z,6.07
2019-03-26T00:49:24.409Z,7.90
2019-03-26T00:51:54.841Z,7.97
2019-03-26T00:54:25.365Z,5.97
2019-03-26T00:56:55.818Z,7.23
2019-03-26T00:59:26.290Z,7.60
2019-03-26T01:01:56.742Z,7.90
2019-03-26T01:04:32.594Z,8.80
2019-03-26T01:06:59.448Z,7.10
2019-03-26T01:09:29.951Z,8.70
2019-03-26T01:12:00.472Z,11.63
2019-03-26T01:14:30.991Z,8.40
2019-03-26T01:17:01.643Z,9.77
2019-03-26T01:19:32.168Z,9.77
2019-03-26T01:22:02.600Z,11.17
2019-03-26T01:24:33.035Z,10.63
2019-03-26T01:27:03.501Z,10.50
2019-03-26T01:29:33.992Z,10.00
2019-03-26T01:32:04.623Z,10.40
2019-03-26T01:34:45.480Z,8.60
2019-03-26T01:37:07.226Z,9.00
2019-03-26T01:39:37.679Z,9.27
2019-03-26T01:42:08.176Z,9.97
2019-03-26T01:44:38.685Z,9.90
2019-03-26T01:47:09.198Z,11.47
2019-03-26T01:49:39.650Z,9.77
2019-03-26T01:52:10.087Z,10.37
2019-03-26T01:54:40.518Z,9.67
2019-03-26T01:57:10.958Z,9.80
2019-03-26T01:59:41.416Z,10.90
2019-03-26T02:02:11.937Z,11.90
2019-03-26T02:04:42.474Z,11.43
2019-03-26T02:07:12.929Z,10.93
2019-03-26T02:09:43.377Z,10.07
2019-03-26T02:12:14.038Z,10.93
2019-03-26T02:14:44.487Z,10.77
2019-03-26T02:17:15.352Z,12.10
2019-03-26T02:19:45.874Z,12.07
2019-03-26T02:22:16.536Z,11.03
2019-03-26T02:24:47.029Z,10.90
2019-03-26T02:27:17.474Z,13.50
2019-03-26T02:29:47.928Z,12.50
2019-03-26T02:32:18.303Z,12.63
2019-03-26T02:34:48.651Z,11.90
2019-03-26T02:37:19.080Z,13.23
2019-03-26T02:39:50.491Z,13.93
2019-03-26T02:42:20.856Z,13.30
2019-03-26T02:44:52.404Z,13.07
2019-03-26T02:47:22.774Z,11.33
2019-03-26T02:49:53.214Z,13.63
2019-03-26T02:52:23.742Z,13.43
2019-03-26T02:54:54.270Z,13.53
2019-03-26T02:57:25.789Z,13.53
2019-03-26T02:59:56.493Z,12.60
2019-03-26T03:02:26.933Z,12.97
2019-03-26T03:04:57.498Z,12.43
2019-03-26T03:07:28.028Z,12.50
2019-03-26T03:09:58.516Z,12.33
2019-03-26T03:12:28.994Z,12.63
2019-03-26T03:14:59.484Z,12.00
2019-03-26T03:17:29.953Z,14.53
2019-03-26T03:20:00.539Z,14.63
2019-03-26T03:22:31.517Z,12.93
2019-03-26T03:25:02.135Z,12.33
2019-03-26T03:27:32.681Z,12.30
2019-03-26T03:30:03.125Z,11.93
2019-03-26T03:32:33.572Z,10.57
2019-03-26T03:35:04.207Z,11.23
2019-03-26T03:37:34.830Z,11.07
2019-03-26T03:40:06.452Z,12.97
2019-03-26T03:42:37.373Z,10.33
2019-03-26T03:45:10.266Z,11.50
2019-03-26T03:47:41.189Z,9.33
2019-03-26T03:50:12.379Z,9.73
2019-03-26T03:52:43.012Z,9.23
2019-03-26T03:55:14.049Z,9.83
2019-03-26T03:57:47.711Z,8.67
2019-03-26T04:00:35.497Z,9.73
2019-03-26T04:03:07.045Z,10.43
2019-03-26T04:05:38.155Z,9.73
2019-03-26T04:08:08.935Z,8.80
2019-03-26T04:10:39.645Z,10.10
2019-03-26T04:13:10.214Z,11.40
2019-03-26T04:15:40.743Z,10.97
2019-03-26T04:18:11.440Z,11.13
2019-03-26T04:20:41.905Z,11.30
2019-03-26T04:23:12.437Z,12.20
2019-03-26T04:25:42.959Z,11.23
2019-03-26T04:28:13.339Z,14.77
2019-03-26T04:30:43.843Z,11.07
2019-03-26T04:33:14.294Z,10.60
2019-03-26T04:35:44.807Z,10.73
2019-03-26T04:38:15.359Z,10.83
2019-03-26T04:40:45.782Z,11.13
2019-03-26T04:43:19.041Z,9.77
2019-03-26T04:45:48.438Z,10.63
2019-03-26T04:48:18.905Z,10.23
2019-03-26T04:50:49.554Z,10.23
2019-03-26T04:53:21.100Z,9.90
2019-03-26T04:55:51.700Z,9.23
2019-03-26T04:58:22.079Z,10.53
2019-03-26T05:00:52.574Z,10.03
2019-03-26T05:03:23.000Z,9.60
2019-03-26T05:05:53.453Z,10.27
2019-03-26T05:08:24.031Z,9.67
2019-03-26T05:10:54.521Z,9.60
2019-03-26T05:13:24.948Z,8.83
2019-03-26T05:15:55.338Z,8.67
2019-03-26T05:18:26.356Z,8.87
2019-03-26T05:20:56.805Z,9.50
2019-03-26T05:23:27.233Z,8.70
2019-03-26T05:25:57.768Z,9.70
2019-03-26T05:28:28.184Z,10.70
2019-03-26T05:30:58.638Z,9.53
2019-03-26T05:33:29.220Z,9.93
2019-03-26T05:35:59.662Z,10.23
2019-03-26T05:38:30.178Z,9.80
2019-03-26T05:41:00.713Z,11.20
2019-03-26T05:43:31.229Z,11.03
2019-03-26T05:46:01.725Z,10.87
2019-03-26T05:48:32.162Z,9.83
2019-03-26T05:51:02.728Z,11.73
2019-03-26T05:53:33.153Z,10.33
2019-03-26T05:56:03.648Z,11.27
2019-03-26T05:58:34.155Z,9.90
2019-03-26T06:01:04.913Z,10.23
2019-03-26T06:03:35.470Z,10.23
2019-03-26T06:06:05.956Z,9.53
2019-03-26T06:08:36.399Z,10.33
2019-03-26T06:11:07.052Z,9.53
2019-03-26T06:13:37.510Z,10.20
2019-03-26T06:16:08.124Z,9.47
2019-03-26T06:18:38.647Z,9.87
2019-03-26T06:21:09.086Z,9.70
2019-03-26T06:23:40.886Z,9.47
2019-03-26T06:26:11.408Z,10.10
2019-03-26T06:28:41.859Z,11.73
2019-03-26T06:31:12.362Z,11.17
2019-03-26T06:33:42.814Z,11.70
2019-03-26T06:36:13.269Z,13.33
2019-03-26T06:38:43.753Z,13.23
2019-03-26T06:41:14.281Z,11.53
2019-03-26T06:43:44.814Z,12.43
2019-03-26T06:46:15.360Z,12.50
2019-03-26T06:48:45.919Z,12.10
2019-03-26T06:51:16.389Z,12.57
2019-03-26T06:53:46.897Z,11.60
2019-03-26T06:56:17.352Z,10.97
2019-03-26T06:58:47.904Z,9.77
2019-03-26T07:01:18.739Z,10.30
2019-03-26T07:03:49.299Z,10.20
2019-03-26T07:06:19.759Z,10.47
2019-03-26T07:08:50.186Z,12.47
2019-03-26T07:11:20.683Z,11.47
2019-03-26T07:13:51.146Z,12.83
2019-03-26T07:16:21.668Z,13.33
2019-03-26T07:18:52.738Z,12.43
2019-03-26T07:21:23.176Z,13.30
2019-03-26T07:23:53.687Z,11.87
2019-03-26T07:26:24.292Z,9.40
2019-03-26T07:28:56.769Z,9.00
2019-03-26T07:31:26.901Z,8.57
2019-03-26T07:33:57.333Z,8.47
2019-03-26T07:36:27.856Z,8.50
2019-03-26T07:38:58.382Z,8.10
2019-03-26T07:41:28.733Z,9.73
2019-03-26T07:43:59.256Z,8.33
2019-03-26T07:46:29.690Z,7.60
2019-03-26T07:49:00.065Z,7.17
2019-03-26T07:51:33.161Z,7.07
2019-03-26T07:54:03.660Z,6.60
2019-03-26T07:56:34.096Z,6.53
2019-03-26T07:59:04.775Z,6.43
2019-03-26T08:01:35.280Z,8.07
2019-03-26T08:04:05.855Z,6.73
2019-03-26T08:06:36.451Z,6.83
2019-03-26T08:09:07.957Z,6.40
2019-03-26T08:11:38.522Z,5.80
2019-03-26T08:14:09.636Z,6.07
2019-03-26T08:16:40.143Z,8.17
2019-03-26T08:19:10.779Z,5.73
2019-03-26T08:21:41.292Z,5.83
2019-03-26T08:24:11.702Z,8.10
2019-03-26T08:26:42.237Z,7.50
2019-03-26T08:29:12.759Z,7.20
2019-03-26T08:31:43.387Z,7.30
2019-03-26T08:34:13.816Z,7.13
2019-03-26T08:36:44.431Z,8.70
2019-03-26T08:39:14.881Z,5.87
2019-03-26T08:41:45.349Z,6.53
2019-03-26T08:44:15.916Z,5.50
2019-03-26T08:46:46.506Z,6.77
2019-03-26T08:49:16.937Z,5.23
2019-03-26T08:51:47.367Z,5.67
2019-03-26T08:54:17.796Z,5.80
2019-03-26T08:56:48.222Z,6.17
2019-03-26T08:59:18.737Z,7.60
2019-03-26T09:01:49.365Z,5.30
2019-03-26T09:04:19.728Z,4.93
2019-03-26T09:06:50.142Z,5.40
2019-03-26T09:09:20.571Z,5.17
2019-03-26T09:11:51.109Z,5.67
2019-03-26T09:14:21.962Z,5.13
2019-03-26T09:16:52.422Z,4.87
2019-03-26T09:19:23.215Z,7.60
2019-03-26T09:21:53.733Z,6.40
2019-03-26T09:24:25.205Z,9.33
2019-03-26T09:26:55.626Z,6.10
2019-03-26T09:29:26.043Z,6.13
2019-03-26T09:31:56.669Z,6.40
2019-03-26T09:34:27.179Z,8.80
2019-03-26T09:36:57.689Z,6.73
2019-03-26T09:39:28.141Z,6.03
2019-03-26T09:41:58.763Z,5.57
2019-03-26T09:44:29.174Z,5.73
2019-03-26T09:46:59.690Z,5.77
2019-03-26T09:49:30.074Z,4.70
2019-03-26T09:52:00.533Z,5.50
2019-03-26T09:54:30.984Z,5.37
2019-03-26T09:57:01.638Z,4.50
2019-03-26T09:59:32.176Z,4.07
2019-03-26T10:02:02.753Z,4.50
2019-03-26T10:04:33.230Z,6.67
2019-03-26T10:07:03.733Z,5.23
2019-03-26T10:09:34.287Z,5.90
2019-03-26T10:12:04.808Z,4.40
2019-03-26T10:14:36.358Z,4.80
2019-03-26T10:17:06.824Z,5.37
2019-03-26T10:19:37.377Z,5.43
2019-03-26T10:22:07.952Z,4.80
2019-03-26T10:24:38.447Z,3.90
2019-03-26T10:27:08.946Z,6.07
2019-03-26T10:29:40.585Z,3.53
2019-03-26T10:32:11.167Z,3.47
2019-03-26T10:34:41.677Z,3.50
2019-03-26T10:37:12.120Z,3.50
2019-03-26T10:39:42.646Z,3.53
2019-03-26T10:42:13.085Z,3.50
2019-03-26T10:44:43.534Z,3.93
2019-03-26T10:47:14.042Z,3.30
2019-03-26T10:49:44.462Z,3.43
2019-03-26T10:52:14.819Z,3.20
2019-03-26T10:54:45.243Z,3.17
2019-03-26T10:57:15.746Z,3.20
2019-03-26T10:59:46.233Z,3.13
2019-03-26T11:02:17.755Z,3.10
2019-03-26T11:04:48.191Z,2.90
2019-03-26T11:07:18.645Z,2.70
2019-03-26T11:09:49.154Z,3.37
2019-03-26T11:12:19.857Z,3.63
2019-03-26T11:14:50.359Z,3.00
2019-03-26T11:17:20.994Z,3.60
2019-03-26T11:19:51.481Z,3.23
2019-03-26T11:22:21.989Z,3.20
2019-03-26T11:24:52.427Z,4.00
2019-03-26T11:27:22.930Z,3.10
2019-03-26T11:29:54.510Z,3.50
2019-03-26T11:32:25.113Z,3.10
2019-03-26T11:34:55.541Z,4.20
2019-03-26T11:37:26.181Z,3.20
2019-03-26T11:39:56.588Z,2.80
2019-03-26T11:42:27.104Z,4.57
2019-03-26T11:44:59.383Z,3.20
2019-03-26T11:47:29.913Z,3.63
2019-03-26T11:50:00.369Z,3.33
2019-03-26T11:52:30.713Z,5.10
2019-03-26T11:55:01.209Z,3.07
2019-03-26T11:57:31.642Z,3.93
2019-03-26T12:00:02.070Z,2.93
2019-03-26T12:02:33.104Z,3.23
2019-03-26T12:05:03.645Z,3.30
2019-03-26T12:07:34.135Z,3.37
2019-03-26T12:10:05.378Z,3.60
2019-03-26T12:12:35.918Z,3.80
2019-03-26T12:15:07.813Z,4.13
2019-03-26T12:17:38.265Z,3.67
2019-03-26T12:20:10.429Z,3.30
2019-03-26T12:22:40.970Z,3.73
2019-03-26T12:25:11.687Z,3.83
2019-03-26T12:27:42.424Z,3.23
2019-03-26T12:30:13.370Z,3.30
2019-03-26T12:32:43.908Z,3.50
2019-03-26T12:35:37.037Z,3.47
2019-03-26T12:38:20.453Z,3.10
2019-03-26T12:40:51.434Z,4.97
2019-03-26T12:43:22.265Z,3.87
2019-03-26T12:45:52.792Z,4.23
2019-03-26T12:48:23.254Z,3.63
2019-03-26T12:50:53.885Z,3.87
2019-03-26T12:53:24.569Z,4.20
2019-03-26T12:55:55.011Z,4.43
2019-03-26T12:58:31.655Z,3.53
2019-03-26T13:00:58.679Z,4.10
2019-03-26T13:03:29.308Z,3.93
2019-03-26T13:05:59.879Z,4.13
2019-03-26T13:08:30.445Z,3.93
2019-03-26T13:11:01.085Z,3.60
2019-03-26T13:13:31.534Z,3.80
2019-03-26T13:16:02.106Z,3.70
2019-03-26T13:18:32.665Z,3.50
2019-03-26T13:21:03.781Z,3.50
2019-03-26T13:23:34.442Z,4.07
2019-03-26T13:26:06.369Z,3.60
2019-03-26T13:28:36.997Z,3.30
2019-03-26T13:31:07.554Z,4.30
2019-03-26T13:33:38.844Z,3.47
2019-03-26T13:36:09.785Z,3.17
2019-03-26T13:38:40.355Z,4.20
2019-03-26T13:41:11.048Z,3.10
2019-03-26T13:43:41.712Z,4.20
2019-03-26T13:46:12.274Z,3.40
2019-03-26T13:48:42.827Z,3.07
2019-03-26T13:51:13.205Z,3.20
2019-03-26T13:53:43.877Z,4.20
2019-03-26T13:56:14.421Z,3.20
2019-03-26T13:58:44.971Z,3.50
2019-03-26T14:01:16.494Z,3.63
2019-03-26T14:03:47.351Z,3.87
2019-03-26T14:06:18.010Z,3.83
2019-03-26T14:08:48.527Z,3.27
2019-03-26T14:11:19.061Z,3.20
2019-03-26T14:13:49.517Z,6.07
2019-03-26T14:16:19.991Z,3.73
2019-03-26T14:18:50.592Z,5.97
2019-03-26T14:21:21.171Z,4.70
2019-03-26T14:23:51.620Z,3.53
2019-03-26T14:26:22.186Z,6.10
2019-03-26T14:28:52.738Z,3.10
2019-03-26T14:31:23.681Z,3.47
2019-03-26T14:33:54.403Z,5.73
2019-03-26T14:36:24.838Z,3.20
2019-03-26T14:38:55.378Z,3.93
2019-03-26T14:41:25.810Z,3.53
2019-03-26T14:43:57.345Z,3.37
2019-03-26T14:46:27.875Z,3.20
2019-03-26T14:48:58.443Z,3.37
2019-03-26T14:51:29.259Z,3.43
2019-03-26T14:53:59.707Z,3.67
2019-03-26T14:56:30.306Z,3.40
2019-03-26T14:59:00.739Z,3.47
2019-03-26T15:01:31.237Z,3.83
2019-03-26T15:04:01.775Z,3.37
2019-03-26T15:06:33.178Z,4.67
2019-03-26T15:09:04.461Z,4.93
2019-03-26T15:11:35.005Z,3.57
2019-03-26T15:14:05.525Z,3.63
2019-03-26T15:16:36.954Z,4.47
2019-03-26T15:19:07.514Z,3.30
2019-03-26T15:21:38.441Z,5.00
2019-03-26T15:24:08.878Z,4.37
2019-03-26T15:26:39.380Z,3.60
2019-03-26T15:29:10.021Z,3.63
2019-03-26T15:31:40.769Z,3.20
2019-03-26T15:34:11.294Z,4.10
2019-03-26T15:36:41.866Z,5.40
2019-03-26T15:39:12.373Z,4.00
2019-03-26T15:41:42.910Z,3.97
2019-03-26T15:44:13.434Z,4.60
2019-03-26T15:46:44.001Z,3.90
2019-03-26T15:49:14.483Z,3.00
2019-03-26T15:51:45.957Z,3.87
2019-03-26T15:54:16.385Z,3.93
2019-03-26T15:56:47.018Z,4.00
2019-03-26T15:59:17.470Z,3.90
2019-03-26T16:01:47.919Z,3.57
2019-03-26T16:04:18.438Z,4.07
2019-03-26T16:06:48.977Z,5.23
2019-03-26T16:09:19.476Z,4.23
2019-03-26T16:11:49.987Z,3.97
2019-03-26T16:14:20.571Z,3.77
2019-03-26T16:16:50.990Z,3.37
2019-03-26T16:19:32.291Z,4.33
2019-03-26T16:21:54.104Z,3.93
2019-03-26T16:24:24.578Z,3.60
2019-03-26T16:26:55.150Z,4.13
2019-03-26T16:29:26.180Z,3.50
2019-03-26T16:31:56.655Z,4.77
2019-03-26T16:34:27.265Z,7.53
2019-03-26T16:37:00.143Z,4.47
2019-03-26T16:39:30.794Z,5.13
2019-03-26T16:42:01.391Z,4.63
2019-03-26T16:44:31.848Z,5.37
2019-03-26T16:47:02.290Z,3.87
2019-03-26T16:49:32.792Z,5.07
2019-03-26T16:52:03.217Z,5.87
2019-03-26T16:54:33.757Z,5.93
2019-03-26T16:57:04.286Z,6.47
2019-03-26T16:59:34.893Z,5.10
2019-03-26T17:02:05.529Z,6.53
2019-03-26T17:04:35.914Z,5.60
2019-03-26T17:07:07.460Z,4.43
2019-03-26T17:09:37.866Z,5.40
2019-03-26T17:12:09.443Z,5.47
2019-03-26T17:14:39.868Z,4.50
2019-03-26T17:17:11.466Z,4.90
2019-03-26T17:19:41.993Z,4.53
2019-03-26T17:22:12.715Z,5.27
2019-03-26T17:24:43.221Z,4.17
2019-03-26T17:27:13.777Z,4.70
2019-03-26T17:29:44.282Z,4.50
2019-03-26T17:32:14.724Z,4.70
2019-03-26T17:34:45.911Z,4.87
2019-03-26T17:37:16.353Z,6.73
2019-03-26T17:39:46.778Z,5.90
2019-03-26T17:42:17.870Z,5.37
2019-03-26T17:44:48.705Z,5.43
2019-03-26T17:47:20.115Z,7.50
2019-03-26T17:49:50.550Z,6.93
2019-03-26T17:52:20.897Z,5.13
2019-03-26T17:54:51.432Z,5.53
2019-03-26T17:57:21.948Z,5.90
2019-03-26T17:59:52.382Z,6.80
2019-03-26T18:02:22.890Z,6.43
2019-03-26T18:04:53.445Z,7.13
2019-03-26T18:07:23.855Z,6.17
2019-03-26T18:09:54.398Z,5.60
2019-03-26T18:12:30.772Z,7.53
2019-03-26T18:14:57.190Z,5.80
2019-03-26T18:17:27.719Z,6.90
2019-03-26T18:19:58.149Z,6.37
2019-03-26T18:22:28.672Z,6.13
2019-03-26T18:24:59.139Z,8.40
2019-03-26T18:27:29.741Z,8.77
2019-03-26T18:30:00.412Z,6.43
2019-03-26T18:32:30.859Z,5.67
2019-03-26T18:35:01.330Z,5.53
2019-03-26T18:37:32.930Z,5.83
2019-03-26T18:40:03.655Z,5.40
2019-03-26T18:42:43.980Z,5.57
2019-03-26T18:45:06.859Z,5.87
2019-03-26T18:47:37.369Z,7.10
2019-03-26T18:50:08.208Z,6.17
2019-03-26T18:52:38.903Z,5.40
2019-03-26T18:55:09.767Z,8.87
2019-03-26T18:57:40.302Z,6.27
2019-03-26T19:00:11.846Z,6.10
2019-03-26T19:02:42.928Z,7.57
2019-03-26T19:05:13.738Z,5.77
2019-03-26T19:07:44.282Z,6.57
2019-03-26T19:10:26.969Z,8.67
2019-03-26T19:12:57.518Z,5.47
2019-03-26T19:15:29.193Z,7.50
2019-03-26T19:17:59.811Z,5.43
2019-03-26T19:20:30.652Z,5.80
2019-03-26T19:23:01.401Z,5.30
2019-03-26T19:25:33.060Z,5.83
2019-03-26T19:28:03.624Z,6.23
2019-03-26T19:30:35.289Z,5.83
2019-03-26T19:33:05.909Z,5.43
2019-03-26T19:35:36.641Z,6.83
2019-03-26T19:38:07.326Z,7.83
2019-03-26T19:40:37.900Z,7.80
2019-03-26T19:43:11.232Z,5.90
2019-03-26T19:45:40.781Z,6.27
2019-03-26T19:48:11.141Z,6.50
2019-03-26T19:50:41.569Z,5.17
2019-03-26T19:53:12.013Z,5.47
2019-03-26T19:55:42.582Z,6.83
2019-03-26T19:58:12.982Z,5.97
2019-03-26T20:00:43.497Z,6.50
2019-03-26T20:03:13.963Z,11.87
2019-03-26T20:05:45.335Z,6.57
2019-03-26T20:08:15.842Z,9.03
2019-03-26T20:10:46.309Z,8.47
2019-03-26T20:13:24.299Z,10.17
2019-03-26T20:15:49.112Z,8.17
2019-03-26T20:18:19.538Z,7.63
2019-03-26T20:21:08.877Z,7.17
2019-03-26T20:23:39.510Z,6.63
2019-03-26T20:26:10.036Z,8.13
2019-03-26T20:28:40.641Z,6.47
2019-03-26T20:31:11.177Z,6.23
2019-03-26T20:33:42.541Z,6.17
2019-03-26T20:36:13.745Z,7.57
2019-03-26T20:38:44.171Z,6.67
2019-03-26T20:41:14.679Z,9.00
2019-03-26T20:43:45.181Z,9.10
2019-03-26T20:46:15.710Z,9.70
2019-03-26T20:48:46.331Z,7.90
2019-03-26T20:51:16.768Z,7.33
2019-03-26T20:53:47.209Z,6.60
2019-03-26T20:56:17.921Z,7.37
2019-03-26T20:58:48.817Z,7.43
2019-03-26T21:01:19.331Z,7.87
2019-03-26T21:03:49.828Z,7.53
2019-03-26T21:06:20.368Z,6.97
2019-03-26T21:08:50.813Z,8.40
2019-03-26T21:11:21.341Z,6.30
2019-03-26T21:13:51.825Z,7.20
2019-03-26T21:16:22.262Z,6.73
2019-03-26T21:18:52.770Z,7.60
2019-03-26T21:21:23.404Z,9.20
2019-03-26T21:23:53.827Z,6.43
2019-03-26T21:26:24.623Z,6.17
2019-03-26T21:28:55.102Z,9.03
2019-03-26T21:31:25.591Z,10.37
2019-03-26T21:33:56.130Z,7.27
2019-03-26T21:36:26.633Z,8.33
2019-03-26T21:38:57.148Z,7.77
2019-03-26T21:41:27.768Z,8.33
2019-03-26T21:44:04.315Z,6.20
2019-03-26T21:46:30.320Z,8.37
2019-03-26T21:49:00.767Z,7.23
2019-03-26T21:51:31.379Z,9.03
2019-03-26T21:54:01.915Z,7.73
2019-03-26T21:56:32.354Z,7.83
2019-03-26T21:59:02.975Z,10.10
2019-03-26T22:01:33.518Z,8.43
2019-03-26T22:04:04.111Z,6.80
2019-03-26T22:06:34.713Z,8.73
2019-03-26T22:09:06.362Z,9.97
2019-03-26T22:11:49.104Z,9.33
2019-03-26T22:14:17.904Z,7.73
2019-03-26T22:16:43.776Z,10.90
2019-03-26T22:19:27.488Z,7.17
2019-03-26T22:21:47.558Z,8.83
2019-03-26T22:24:17.943Z,9.97
2019-03-26T22:26:48.909Z,10.83
2019-03-26T22:29:19.308Z,9.13
2019-03-26T22:31:49.766Z,11.37
2019-03-26T22:34:20.351Z,7.47
2019-03-26T22:36:51.167Z,10.57
2019-03-26T22:39:21.888Z,9.13
2019-03-26T22:41:52.398Z,9.10
2019-03-26T22:44:31.337Z,8.53
2019-03-26T22:46:54.995Z,9.00
2019-03-26T22:49:25.437Z,10.53
2019-03-26T22:51:56.008Z,9.67
2019-03-26T22:54:26.596Z,11.00
2019-03-26T22:56:57.278Z,12.00
2019-03-26T22:59:28.023Z,9.97
2019-03-26T23:01:58.593Z,9.73
2019-03-26T23:04:48.097Z,9.47
2019-03-26T23:07:18.595Z,10.07
2019-03-26T23:09:49.023Z,8.30
2019-03-26T23:12:19.606Z,11.53
2019-03-26T23:14:51.289Z,10.80
2019-03-26T23:17:21.865Z,8.80
2019-03-26T23:19:52.433Z,10.27
2019-03-26T23:22:23.030Z,11.50
2019-03-26T23:24:53.473Z,10.60
2019-03-26T23:27:23.895Z,10.97
2019-03-26T23:29:54.542Z,8.87
2019-03-26T23:32:24.986Z,11.53
2019-03-26T23:34:55.442Z,10.03
2019-03-26T23:37:26.783Z,12.13
2019-03-26T23:39:57.276Z,12.70
2019-03-26T23:42:27.754Z,9.23
2019-03-26T23:44:58.856Z,12.10
2019-03-26T23:47:29.445Z,12.63
2019-03-26T23:49:59.908Z,13.07
2019-03-26T23:52:30.446Z,10.40
2019-03-26T23:55:01.013Z,14.17
2019-03-26T23:57:31.527Z,10.57
